sensor_id;sensor_type;location;lat;lon;timestamp;pressure;altitude;pressure_sealevel;temperature;humidity
77631;BME280;66798;47.370;8.552;2023-05-24T05:19:05;96784.16;;;13.74;80.70
77631;BME280;66798;47.370;8.552;2023-05-24T05:21:32;96783.31;;;13.54;80.87
77631;BME280;66798;47.370;8.552;2023-05-24T05:24:02;96794.31;;;13.37;81.70
77631;BME280;66798;47.370;8.552;2023-05-24T05:26:28;96785.19;;;13.54;81.43
77631;BME280;66798;47.370;8.552;2023-05-24T05:28:55;96788.28;;;13.61;81.28
77631;BME280;66798;47.370;8.552;2023-05-24T05:31:21;96786.16;;;13.34;81.50
77631;BME280;66798;47.370;8.552;2023-05-24T05:33:46;96788.06;;;13.28;82.19
77631;BME280;66798;47.370;8.552;2023-05-24T05:36:12;96789.81;;;13.38;82.58
77631;BME280;66798;47.370;8.552;2023-05-24T05:38:37;96793.94;;;13.49;81.84
77631;BME280;66798;47.370;8.552;2023-05-24T05:41:03;96789.44;;;13.50;82.14
77631;BME280;66798;47.370;8.552;2023-05-24T05:43:30;96789.25;;;13.65;81.74
77631;BME280;66798;47.370;8.552;2023-05-24T05:45:55;96798.41;;;13.73;81.36
77631;BME280;66798;47.370;8.552;2023-05-24T05:48:20;96797.19;;;13.65;81.52
77631;BME280;66798;47.370;8.552;2023-05-24T05:50:46;96796.97;;;13.62;81.78
77631;BME280;66798;47.370;8.552;2023-05-24T05:53:11;96796.06;;;13.71;81.28
77631;BME280;66798;47.370;8.552;2023-05-24T05:55:37;96796.47;;;13.59;81.83
77631;BME280;66798;47.370;8.552;2023-05-24T05:58:02;96796.41;;;13.65;82.20
77631;BME280;66798;47.370;8.552;2023-05-24T06:00:28;96801.38;;;13.71;81.60
77631;BME280;66798;47.370;8.552;2023-05-24T06:02:53;96794.50;;;13.70;81.02
77631;BME280;66798;47.370;8.552;2023-05-24T06:05:19;96791.63;;;13.67;81.45
77631;BME280;66798;47.370;8.552;2023-05-24T06:07:44;96798.94;;;13.75;80.72
77631;BME280;66798;47.370;8.552;2023-05-24T06:10:11;96804.28;;;13.70;80.53
77631;BME280;66798;47.370;8.552;2023-05-24T06:12:36;96801.50;;;13.56;80.72
77631;BME280;66798;47.370;8.552;2023-05-24T06:15:05;96805.22;;;13.55;80.66
77631;BME280;66798;47.370;8.552;2023-05-24T06:17:32;96808.66;;;13.55;81.36
77631;BME280;66798;47.370;8.552;2023-05-24T06:19:59;96812.91;;;13.51;80.57
77631;BME280;66798;47.370;8.552;2023-05-24T06:22:25;96804.16;;;13.56;80.72
77631;BME280;66798;47.370;8.552;2023-05-24T06:24:52;96817.16;;;13.52;80.42
77631;BME280;66798;47.370;8.552;2023-05-24T06:27:18;96802.13;;;13.48;80.88
77631;BME280;66798;47.370;8.552;2023-05-24T06:29:43;96810.28;;;13.51;81.25
77631;BME280;66798;47.370;8.552;2023-05-24T06:32:09;96815.16;;;13.68;80.78
77631;BME280;66798;47.370;8.552;2023-05-24T06:34:35;96812.44;;;13.73;80.70
77631;BME280;66798;47.370;8.552;2023-05-24T06:37:00;96816.22;;;13.67;80.04
77631;BME280;66798;47.370;8.552;2023-05-24T06:39:26;96816.44;;;13.71;79.70
77631;BME280;66798;47.370;8.552;2023-05-24T06:41:52;96819.69;;;13.87;79.56
77631;BME280;66798;47.370;8.552;2023-05-24T06:44:18;96820.66;;;13.96;79.83
77631;BME280;66798;47.370;8.552;2023-05-24T06:46:43;96817.25;;;14.14;80.09
77631;BME280;66798;47.370;8.552;2023-05-24T06:49:09;96829.78;;;14.28;79.79
77631;BME280;66798;47.370;8.552;2023-05-24T06:51:34;96818.97;;;14.05;77.15
77631;BME280;66798;47.370;8.552;2023-05-24T06:54:01;96820.47;;;14.11;79.23
77631;BME280;66798;47.370;8.552;2023-05-24T06:56:26;96819.50;;;14.26;79.03
77631;BME280;66798;47.370;8.552;2023-05-24T06:58:53;96816.34;;;14.24;77.37
77631;BME280;66798;47.370;8.552;2023-05-24T07:01:18;96823.63;;;14.32;77.52
77631;BME280;66798;47.370;8.552;2023-05-24T07:03:44;96818.66;;;14.31;76.79
77631;BME280;66798;47.370;8.552;2023-05-24T07:06:09;96822.94;;;14.45;77.48
77631;BME280;66798;47.370;8.552;2023-05-24T07:08:39;96826.59;;;14.31;76.69
77631;BME280;66798;47.370;8.552;2023-05-24T07:11:05;96829.59;;;14.43;76.82
77631;BME280;66798;47.370;8.552;2023-05-24T07:13:32;96828.56;;;14.20;76.89
77631;BME280;66798;47.370;8.552;2023-05-24T07:15:57;96822.63;;;14.09;77.22
77631;BME280;66798;47.370;8.552;2023-05-24T07:18:23;96828.63;;;14.15;77.38
77631;BME280;66798;47.370;8.552;2023-05-24T07:20:48;96829.38;;;13.96;77.93
77631;BME280;66798;47.370;8.552;2023-05-24T07:23:14;96833.19;;;14.09;76.97
77631;BME280;66798;47.370;8.552;2023-05-24T07:25:39;96834.44;;;14.17;77.49
77631;BME280;66798;47.370;8.552;2023-05-24T07:28:05;96826.44;;;13.98;76.61
77631;BME280;66798;47.370;8.552;2023-05-24T07:30:31;96838.59;;;14.23;77.17
77631;BME280;66798;47.370;8.552;2023-05-24T07:32:56;96835.81;;;14.33;76.23
77631;BME280;66798;47.370;8.552;2023-05-24T07:35:22;96839.56;;;14.27;75.83
77631;BME280;66798;47.370;8.552;2023-05-24T07:37:48;96847.22;;;14.10;76.90
77631;BME280;66798;47.370;8.552;2023-05-24T07:40:13;96836.09;;;14.32;76.47
77631;BME280;66798;47.370;8.552;2023-05-24T07:42:39;96839.31;;;14.48;76.01
77631;BME280;66798;47.370;8.552;2023-05-24T07:45:06;96833.44;;;14.32;74.85
77631;BME280;66798;47.370;8.552;2023-05-24T07:47:33;96840.13;;;14.05;75.40
77631;BME280;66798;47.370;8.552;2023-05-24T07:49:59;96840.34;;;14.09;75.09
77631;BME280;66798;47.370;8.552;2023-05-24T07:52:24;96852.66;;;14.18;75.90
77631;BME280;66798;47.370;8.552;2023-05-24T07:54:50;96833.50;;;14.27;75.47
77631;BME280;66798;47.370;8.552;2023-05-24T07:57:17;96840.44;;;14.22;75.00
77631;BME280;66798;47.370;8.552;2023-05-24T07:59:43;96823.41;;;14.10;74.63
77631;BME280;66798;47.370;8.552;2023-05-24T08:02:08;96832.81;;;13.97;76.65
77631;BME280;66798;47.370;8.552;2023-05-24T08:04:36;96829.41;;;14.15;75.78
77631;BME280;66798;47.370;8.552;2023-05-24T08:07:01;96837.22;;;14.26;76.08
77631;BME280;66798;47.370;8.552;2023-05-24T08:09:28;96829.16;;;14.36;74.83
77631;BME280;66798;47.370;8.552;2023-05-24T08:11:54;96832.41;;;14.52;74.63
77631;BME280;66798;47.370;8.552;2023-05-24T08:14:21;96836.50;;;14.63;74.12
77631;BME280;66798;47.370;8.552;2023-05-24T08:16:47;96831.66;;;14.46;73.63
77631;BME280;66798;47.370;8.552;2023-05-24T08:19:12;96827.97;;;14.47;73.49
77631;BME280;66798;47.370;8.552;2023-05-24T08:21:38;96832.94;;;14.30;74.25
77631;BME280;66798;47.370;8.552;2023-05-24T08:24:03;96830.28;;;14.30;75.36
77631;BME280;66798;47.370;8.552;2023-05-24T08:26:29;96840.66;;;14.26;75.61
77631;BME280;66798;47.370;8.552;2023-05-24T08:28:54;96845.59;;;14.14;76.58
77631;BME280;66798;47.370;8.552;2023-05-24T08:31:20;96841.13;;;14.09;76.10
77631;BME280;66798;47.370;8.552;2023-05-24T08:33:46;96848.72;;;14.16;76.84
77631;BME280;66798;47.370;8.552;2023-05-24T08:36:16;96842.94;;;14.14;76.34
77631;BME280;66798;47.370;8.552;2023-05-24T08:38:41;96852.94;;;13.93;76.83
77631;BME280;66798;47.370;8.552;2023-05-24T08:41:10;96856.09;;;13.95;75.77
77631;BME280;66798;47.370;8.552;2023-05-24T08:43:37;96843.06;;;14.22;76.93
77631;BME280;66798;47.370;8.552;2023-05-24T08:46:04;96851.34;;;14.40;77.15
77631;BME280;66798;47.370;8.552;2023-05-24T08:48:30;96859.16;;;14.50;75.53
77631;BME280;66798;47.370;8.552;2023-05-24T08:50:57;96860.22;;;14.49;74.13
77631;BME280;66798;47.370;8.552;2023-05-24T08:53:23;96860.63;;;14.37;72.68
77631;BME280;66798;47.370;8.552;2023-05-24T08:55:49;96857.22;;;14.56;74.89
77631;BME280;66798;47.370;8.552;2023-05-24T08:58:18;96871.88;;;14.48;73.83
77631;BME280;66798;47.370;8.552;2023-05-24T09:00:43;96865.63;;;14.39;73.13
77631;BME280;66798;47.370;8.552;2023-05-24T09:03:10;96867.84;;;14.32;75.03
77631;BME280;66798;47.370;8.552;2023-05-24T09:05:36;96875.13;;;13.97;74.26
77631;BME280;66798;47.370;8.552;2023-05-24T09:08:05;96868.88;;;13.88;75.54
77631;BME280;66798;47.370;8.552;2023-05-24T09:10:32;96878.94;;;13.86;76.32
77631;BME280;66798;47.370;8.552;2023-05-24T09:13:01;96882.06;;;13.64;74.81
77631;BME280;66798;47.370;8.552;2023-05-24T09:15:27;96888.81;;;13.75;75.88
77631;BME280;66798;47.370;8.552;2023-05-24T09:17:53;96891.56;;;13.65;76.46
77631;BME280;66798;47.370;8.552;2023-05-24T09:20:20;96883.38;;;13.66;75.23
77631;BME280;66798;47.370;8.552;2023-05-24T09:22:50;96888.72;;;13.56;75.48
77631;BME280;66798;47.370;8.552;2023-05-24T09:25:17;96895.31;;;13.58;75.25
77631;BME280;66798;47.370;8.552;2023-05-24T09:27:52;96885.63;;;13.49;74.21
77631;BME280;66798;47.370;8.552;2023-05-24T09:30:18;96884.53;;;13.55;74.88
77631;BME280;66798;47.370;8.552;2023-05-24T09:32:56;96885.41;;;13.74;75.58
77631;BME280;66798;47.370;8.552;2023-05-24T09:35:21;96882.16;;;13.83;73.61
77631;BME280;66798;47.370;8.552;2023-05-24T09:37:47;96886.75;;;13.96;70.66
77631;BME280;66798;47.370;8.552;2023-05-24T09:40:17;96883.72;;;13.84;72.63
77631;BME280;66798;47.370;8.552;2023-05-24T09:42:44;96886.94;;;13.80;72.85
77631;BME280;66798;47.370;8.552;2023-05-24T09:45:11;96891.00;;;13.68;72.77
77631;BME280;66798;47.370;8.552;2023-05-24T09:47:41;96883.25;;;13.76;72.53
77631;BME280;66798;47.370;8.552;2023-05-24T09:50:14;96884.81;;;13.83;72.15
77631;BME280;66798;47.370;8.552;2023-05-24T09:52:42;96871.97;;;13.71;71.46
77631;BME280;66798;47.370;8.552;2023-05-24T09:57:37;96875.22;;;13.87;71.37
77631;BME280;66798;47.370;8.552;2023-05-24T10:00:09;96888.69;;;13.90;70.62
77631;BME280;66798;47.370;8.552;2023-05-24T10:02:41;96888.06;;;13.98;71.41
77631;BME280;66798;47.370;8.552;2023-05-24T10:05:09;96893.47;;;13.88;71.28
77631;BME280;66798;47.370;8.552;2023-05-24T10:07:36;96906.22;;;13.81;70.65
77631;BME280;66798;47.370;8.552;2023-05-24T10:10:03;96903.91;;;13.74;70.68
77631;BME280;66798;47.370;8.552;2023-05-24T10:12:29;96883.13;;;13.63;71.32
77631;BME280;66798;47.370;8.552;2023-05-24T10:14:56;96897.25;;;13.77;71.50
77631;BME280;66798;47.370;8.552;2023-05-24T10:17:23;96888.94;;;13.89;71.93
77631;BME280;66798;47.370;8.552;2023-05-24T10:19:52;96885.34;;;14.03;71.42
77631;BME280;66798;47.370;8.552;2023-05-24T10:22:19;96892.28;;;13.99;70.23
77631;BME280;66798;47.370;8.552;2023-05-24T10:24:49;96895.00;;;13.94;71.27
77631;BME280;66798;47.370;8.552;2023-05-24T10:27:21;96891.59;;;14.13;71.09
77631;BME280;66798;47.370;8.552;2023-05-24T10:30:00;96903.66;;;14.24;69.38
77631;BME280;66798;47.370;8.552;2023-05-24T10:32:32;96889.34;;;14.25;70.37
77631;BME280;66798;47.370;8.552;2023-05-24T10:35:02;96897.97;;;14.36;69.31
77631;BME280;66798;47.370;8.552;2023-05-24T10:37:29;96899.81;;;14.35;69.37
77631;BME280;66798;47.370;8.552;2023-05-24T10:39:57;96883.44;;;14.57;69.50
77631;BME280;66798;47.370;8.552;2023-05-24T10:42:23;96895.03;;;14.80;66.91
77631;BME280;66798;47.370;8.552;2023-05-24T10:44:48;96898.59;;;14.90;67.15
77631;BME280;66798;47.370;8.552;2023-05-24T10:47:14;96900.69;;;14.74;66.17
77631;BME280;66798;47.370;8.552;2023-05-24T10:49:53;96902.75;;;14.77;67.69
77631;BME280;66798;47.370;8.552;2023-05-24T10:52:19;96891.66;;;14.75;66.71
77631;BME280;66798;47.370;8.552;2023-05-24T10:57:28;96903.78;;;13.85;68.65
77631;BME280;66798;47.370;8.552;2023-05-24T10:59:55;96903.91;;;13.74;68.00
77631;BME280;66798;47.370;8.552;2023-05-24T11:02:21;96904.34;;;13.81;68.36
77631;BME280;66798;47.370;8.552;2023-05-24T11:04:47;96903.84;;;13.79;68.46
77631;BME280;66798;47.370;8.552;2023-05-24T11:07:15;96900.66;;;13.83;68.27
77631;BME280;66798;47.370;8.552;2023-05-24T11:09:41;96900.41;;;13.79;68.10
77631;BME280;66798;47.370;8.552;2023-05-24T11:12:17;96904.81;;;13.89;68.19
77631;BME280;66798;47.370;8.552;2023-05-24T11:14:48;96903.63;;;13.76;69.20
77631;BME280;66798;47.370;8.552;2023-05-24T11:17:14;96901.81;;;13.71;68.69
77631;BME280;66798;47.370;8.552;2023-05-24T11:19:46;96905.19;;;13.48;69.31
77631;BME280;66798;47.370;8.552;2023-05-24T11:22:13;96899.88;;;13.53;69.79
77631;BME280;66798;47.370;8.552;2023-05-24T11:24:43;96894.34;;;13.49;70.51
77631;BME280;66798;47.370;8.552;2023-05-24T11:27:10;96892.56;;;13.45;70.44
77631;BME280;66798;47.370;8.552;2023-05-24T11:29:41;96886.13;;;13.51;70.56
77631;BME280;66798;47.370;8.552;2023-05-24T11:32:07;96893.00;;;13.52;70.35
77631;BME280;66798;47.370;8.552;2023-05-24T11:34:33;96892.44;;;13.55;70.46
77631;BME280;66798;47.370;8.552;2023-05-24T11:37:00;96895.19;;;13.74;70.74
77631;BME280;66798;47.370;8.552;2023-05-24T11:39:30;96892.88;;;13.91;69.98
77631;BME280;66798;47.370;8.552;2023-05-24T11:41:57;96890.03;;;13.88;69.97
77631;BME280;66798;47.370;8.552;2023-05-24T11:44:23;96892.16;;;13.86;69.59
77631;BME280;66798;47.370;8.552;2023-05-24T11:46:56;96893.06;;;13.76;70.65
77631;BME280;66798;47.370;8.552;2023-05-24T11:49:22;96893.97;;;13.90;70.97
77631;BME280;66798;47.370;8.552;2023-05-24T11:51:47;96888.63;;;14.19;70.00
77631;BME280;66798;47.370;8.552;2023-05-24T11:54:13;96898.97;;;14.40;68.79
77631;BME280;66798;47.370;8.552;2023-05-24T11:56:38;96895.22;;;14.22;69.21
77631;BME280;66798;47.370;8.552;2023-05-24T11:59:13;96891.25;;;14.43;69.22
77631;BME280;66798;47.370;8.552;2023-05-24T12:01:39;96890.91;;;14.50;67.94
77631;BME280;66798;47.370;8.552;2023-05-24T12:04:05;96884.47;;;14.37;67.98
77631;BME280;66798;47.370;8.552;2023-05-24T12:06:41;96887.22;;;14.27;68.25
77631;BME280;66798;47.370;8.552;2023-05-24T12:09:09;96884.84;;;14.26;68.42
77631;BME280;66798;47.370;8.552;2023-05-24T12:11:38;96888.13;;;14.17;69.83
77631;BME280;66798;47.370;8.552;2023-05-24T12:14:05;96881.09;;;14.51;69.51
77631;BME280;66798;47.370;8.552;2023-05-24T12:16:31;96878.72;;;14.73;68.60
77631;BME280;66798;47.370;8.552;2023-05-24T12:18:58;96879.72;;;14.96;67.81
77631;BME280;66798;47.370;8.552;2023-05-24T12:21:24;96873.63;;;15.15;67.05
77631;BME280;66798;47.370;8.552;2023-05-24T12:23:50;96870.25;;;15.09;66.82
77631;BME280;66798;47.370;8.552;2023-05-24T12:26:17;96868.47;;;15.04;65.86
77631;BME280;66798;47.370;8.552;2023-05-24T12:28:46;96884.50;;;14.94;66.17
77631;BME280;66798;47.370;8.552;2023-05-24T12:31:17;96875.19;;;14.97;65.80
77631;BME280;66798;47.370;8.552;2023-05-24T12:33:43;96873.00;;;14.85;66.23
77631;BME280;66798;47.370;8.552;2023-05-24T12:36:09;96875.69;;;14.99;66.19
77631;BME280;66798;47.370;8.552;2023-05-24T12:38:34;96881.13;;;15.07;65.44
77631;BME280;66798;47.370;8.552;2023-05-24T12:41:01;96886.13;;;14.52;66.39
77631;BME280;66798;47.370;8.552;2023-05-24T12:43:27;96875.50;;;14.57;66.69
77631;BME280;66798;47.370;8.552;2023-05-24T12:45:53;96879.34;;;14.84;67.11
77631;BME280;66798;47.370;8.552;2023-05-24T12:48:18;96879.28;;;14.89;66.59
77631;BME280;66798;47.370;8.552;2023-05-24T12:50:45;96879.56;;;15.06;66.37
77631;BME280;66798;47.370;8.552;2023-05-24T12:53:10;96874.81;;;15.22;66.34
77631;BME280;66798;47.370;8.552;2023-05-24T12:55:36;96881.94;;;15.41;65.04
77631;BME280;66798;47.370;8.552;2023-05-24T12:58:01;96881.25;;;15.49;63.85
77631;BME280;66798;47.370;8.552;2023-05-24T13:00:30;96874.50;;;15.43;64.09
77631;BME280;66798;47.370;8.552;2023-05-24T13:02:56;96886.78;;;15.53;65.25
77631;BME280;66798;47.370;8.552;2023-05-24T13:05:27;96878.19;;;15.42;64.56
77631;BME280;66798;47.370;8.552;2023-05-24T13:07:53;96868.88;;;15.31;64.61
77631;BME280;66798;47.370;8.552;2023-05-24T13:10:21;96876.94;;;15.06;64.58
77631;BME280;66798;47.370;8.552;2023-05-24T13:12:47;96870.47;;;15.13;64.95
77631;BME280;66798;47.370;8.552;2023-05-24T13:15:13;96868.22;;;15.20;64.81
77631;BME280;66798;47.370;8.552;2023-05-24T13:17:41;96868.13;;;15.25;64.71
77631;BME280;66798;47.370;8.552;2023-05-24T13:20:07;96862.31;;;15.42;64.66
77631;BME280;66798;47.370;8.552;2023-05-24T13:22:37;96857.53;;;15.58;64.89
77631;BME280;66798;47.370;8.552;2023-05-24T13:25:03;96860.00;;;15.68;64.43
77631;BME280;66798;47.370;8.552;2023-05-24T13:27:29;96858.88;;;15.74;63.77
77631;BME280;66798;47.370;8.552;2023-05-24T13:29:54;96860.44;;;15.75;64.85
77631;BME280;66798;47.370;8.552;2023-05-24T13:32:20;96850.16;;;15.87;64.38
77631;BME280;66798;47.370;8.552;2023-05-24T13:34:46;96846.78;;;15.82;63.79
77631;BME280;66798;47.370;8.552;2023-05-24T13:37:12;96844.34;;;15.85;63.97
77631;BME280;66798;47.370;8.552;2023-05-24T13:39:37;96861.81;;;15.73;63.32
77631;BME280;66798;47.370;8.552;2023-05-24T13:42:03;96851.28;;;15.35;63.34
77631;BME280;66798;47.370;8.552;2023-05-24T13:44:29;96846.63;;;15.45;63.67
77631;BME280;66798;47.370;8.552;2023-05-24T13:46:56;96848.47;;;15.45;63.25
77631;BME280;66798;47.370;8.552;2023-05-24T13:49:22;96841.09;;;15.42;63.75
77631;BME280;66798;47.370;8.552;2023-05-24T13:51:48;96845.22;;;15.34;64.31
77631;BME280;66798;47.370;8.552;2023-05-24T13:54:13;96845.56;;;15.27;64.22
77631;BME280;66798;47.370;8.552;2023-05-24T13:56:39;96854.97;;;15.20;64.44
77631;BME280;66798;47.370;8.552;2023-05-24T13:59:06;96842.81;;;15.19;64.46
77631;BME280;66798;47.370;8.552;2023-05-24T14:01:33;96844.28;;;15.25;63.68
77631;BME280;66798;47.370;8.552;2023-05-24T14:04:01;96843.66;;;15.33;64.73
77631;BME280;66798;47.370;8.552;2023-05-24T14:06:27;96847.66;;;15.31;64.77
77631;BME280;66798;47.370;8.552;2023-05-24T14:08:52;96842.38;;;15.31;63.61
77631;BME280;66798;47.370;8.552;2023-05-24T14:11:18;96846.38;;;15.28;64.45
77631;BME280;66798;47.370;8.552;2023-05-24T14:13:44;96844.16;;;15.35;64.78
77631;BME280;66798;47.370;8.552;2023-05-24T14:16:10;96843.47;;;15.43;64.64
77631;BME280;66798;47.370;8.552;2023-05-24T14:18:35;96848.25;;;15.41;64.36
77631;BME280;66798;47.370;8.552;2023-05-24T14:21:01;96841.88;;;15.28;64.63
77631;BME280;66798;47.370;8.552;2023-05-24T14:23:27;96848.97;;;15.14;65.06
77631;BME280;66798;47.370;8.552;2023-05-24T14:25:56;96848.63;;;15.21;65.49
77631;BME280;66798;47.370;8.552;2023-05-24T14:28:21;96847.34;;;15.18;65.04
77631;BME280;66798;47.370;8.552;2023-05-24T14:30:47;96838.50;;;15.23;64.39
77631;BME280;66798;47.370;8.552;2023-05-24T14:33:12;96840.41;;;15.36;65.01
77631;BME280;66798;47.370;8.552;2023-05-24T14:35:38;96838.66;;;15.45;64.78
77631;BME280;66798;47.370;8.552;2023-05-24T14:38:08;96837.78;;;15.50;65.26
77631;BME280;66798;47.370;8.552;2023-05-24T14:40:34;96836.69;;;15.51;64.67
77631;BME280;66798;47.370;8.552;2023-05-24T14:43:10;96839.66;;;15.63;64.38
77631;BME280;66798;47.370;8.552;2023-05-24T14:45:36;96832.00;;;15.62;64.81
77631;BME280;66798;47.370;8.552;2023-05-24T14:48:03;96834.16;;;15.60;64.35
77631;BME280;66798;47.370;8.552;2023-05-24T14:50:28;96838.25;;;15.71;64.51
77631;BME280;66798;47.370;8.552;2023-05-24T14:52:54;96833.44;;;15.73;64.29
77631;BME280;66798;47.370;8.552;2023-05-24T14:55:19;96833.84;;;15.80;64.33
77631;BME280;66798;47.370;8.552;2023-05-24T14:57:45;96837.16;;;15.72;63.96
77631;BME280;66798;47.370;8.552;2023-05-24T15:00:11;96824.22;;;15.51;63.03
77631;BME280;66798;47.370;8.552;2023-05-24T15:02:37;96820.78;;;15.51;63.35
77631;BME280;66798;47.370;8.552;2023-05-24T15:05:02;96824.06;;;15.62;63.03
77631;BME280;66798;47.370;8.552;2023-05-24T15:07:31;96813.13;;;15.63;64.38
77631;BME280;66798;47.370;8.552;2023-05-24T15:09:59;96822.22;;;15.76;63.88
77631;BME280;66798;47.370;8.552;2023-05-24T15:12:25;96823.00;;;15.77;63.58
77631;BME280;66798;47.370;8.552;2023-05-24T15:14:51;96825.94;;;15.75;63.35
77631;BME280;66798;47.370;8.552;2023-05-24T15:17:16;96815.94;;;15.72;62.51
77631;BME280;66798;47.370;8.552;2023-05-24T15:19:42;96826.03;;;15.70;63.35
77631;BME280;66798;47.370;8.552;2023-05-24T15:22:07;96824.97;;;15.71;63.34
77631;BME280;66798;47.370;8.552;2023-05-24T15:24:33;96820.81;;;15.65;63.66
77631;BME280;66798;47.370;8.552;2023-05-24T15:26:58;96814.59;;;15.42;63.04
77631;BME280;66798;47.370;8.552;2023-05-24T15:29:24;96812.25;;;15.40;63.35
77631;BME280;66798;47.370;8.552;2023-05-24T15:31:49;96810.09;;;15.42;64.03
77631;BME280;66798;47.370;8.552;2023-05-24T15:34:15;96803.44;;;15.12;63.47
77631;BME280;66798;47.370;8.552;2023-05-24T15:36:40;96814.72;;;15.18;64.05
77631;BME280;66798;47.370;8.552;2023-05-24T15:39:06;96812.03;;;15.04;64.36
77631;BME280;66798;47.370;8.552;2023-05-24T15:41:32;96811.16;;;14.76;65.11
77631;BME280;66798;47.370;8.552;2023-05-24T15:43:57;96805.97;;;15.03;64.73
77631;BME280;66798;47.370;8.552;2023-05-24T15:46:25;96810.56;;;14.98;64.85
77631;BME280;66798;47.370;8.552;2023-05-24T15:48:51;96814.31;;;15.11;64.82
77631;BME280;66798;47.370;8.552;2023-05-24T15:51:16;96812.38;;;15.16;64.42
77631;BME280;66798;47.370;8.552;2023-05-24T15:53:42;96816.88;;;15.16;64.48
77631;BME280;66798;47.370;8.552;2023-05-24T15:56:08;96811.59;;;15.16;64.29
77631;BME280;66798;47.370;8.552;2023-05-24T15:58:34;96825.59;;;15.02;64.38
77631;BME280;66798;47.370;8.552;2023-05-24T16:00:59;96822.69;;;15.18;65.15
77631;BME280;66798;47.370;8.552;2023-05-24T16:03:27;96816.34;;;15.33;64.84
77631;BME280;66798;47.370;8.552;2023-05-24T16:05:52;96814.91;;;15.07;64.99
77631;BME280;66798;47.370;8.552;2023-05-24T16:08:18;96812.63;;;15.01;65.03
77631;BME280;66798;47.370;8.552;2023-05-24T16:10:44;96813.34;;;15.06;65.28
77631;BME280;66798;47.370;8.552;2023-05-24T16:13:10;96810.94;;;15.24;65.38
77631;BME280;66798;47.370;8.552;2023-05-24T16:15:38;96813.16;;;15.17;65.19
77631;BME280;66798;47.370;8.552;2023-05-24T16:18:06;96812.09;;;15.18;64.98
77631;BME280;66798;47.370;8.552;2023-05-24T16:20:32;96815.22;;;15.20;64.94
77631;BME280;66798;47.370;8.552;2023-05-24T16:22:58;96805.41;;;15.06;65.49
77631;BME280;66798;47.370;8.552;2023-05-24T16:25:23;96824.34;;;15.14;65.53
77631;BME280;66798;47.370;8.552;2023-05-24T16:27:50;96811.03;;;15.19;65.41
77631;BME280;66798;47.370;8.552;2023-05-24T16:30:16;96809.25;;;15.14;65.71
77631;BME280;66798;47.370;8.552;2023-05-24T16:32:41;96805.69;;;15.05;65.31
77631;BME280;66798;47.370;8.552;2023-05-24T16:35:09;96800.91;;;14.88;65.56
77631;BME280;66798;47.370;8.552;2023-05-24T16:37:35;96807.25;;;14.73;65.97
77631;BME280;66798;47.370;8.552;2023-05-24T16:40:00;96806.16;;;14.55;66.59
77631;BME280;66798;47.370;8.552;2023-05-24T16:42:26;96808.53;;;14.57;66.56
77631;BME280;66798;47.370;8.552;2023-05-24T16:44:51;96808.28;;;14.53;66.33
77631;BME280;66798;47.370;8.552;2023-05-24T16:47:17;96803.41;;;14.41;66.17
77631;BME280;66798;47.370;8.552;2023-05-24T16:49:42;96809.97;;;14.25;66.44
77631;BME280;66798;47.370;8.552;2023-05-24T16:52:08;96807.56;;;14.29;65.95
77631;BME280;66798;47.370;8.552;2023-05-24T16:54:33;96804.03;;;14.14;66.41
77631;BME280;66798;47.370;8.552;2023-05-24T16:56:59;96817.25;;;14.14;66.19
77631;BME280;66798;47.370;8.552;2023-05-24T16:59:25;96810.44;;;14.08;65.84
77631;BME280;66798;47.370;8.552;2023-05-24T17:01:51;96811.03;;;14.05;65.56
77631;BME280;66798;47.370;8.552;2023-05-24T17:04:17;96804.22;;;13.99;65.71
77631;BME280;66798;47.370;8.552;2023-05-24T17:06:43;96812.09;;;14.04;65.82
77631;BME280;66798;47.370;8.552;2023-05-24T17:09:08;96806.16;;;14.12;65.97
77631;BME280;66798;47.370;8.552;2023-05-24T17:11:34;96807.72;;;14.13;66.11
77631;BME280;66798;47.370;8.552;2023-05-24T17:14:00;96816.03;;;14.07;66.56
77631;BME280;66798;47.370;8.552;2023-05-24T17:16:25;96817.03;;;14.11;66.26
77631;BME280;66798;47.370;8.552;2023-05-24T17:18:53;96819.41;;;13.88;67.07
77631;BME280;66798;47.370;8.552;2023-05-24T17:21:20;96828.44;;;13.87;67.98
77631;BME280;66798;47.370;8.552;2023-05-24T17:23:45;96824.19;;;13.86;68.82
77631;BME280;66798;47.370;8.552;2023-05-24T17:26:11;96827.97;;;13.80;68.76
77631;BME280;66798;47.370;8.552;2023-05-24T17:28:39;96836.69;;;13.80;68.52
77631;BME280;66798;47.370;8.552;2023-05-24T17:31:07;96840.69;;;13.78;68.64
77631;BME280;66798;47.370;8.552;2023-05-24T17:33:33;96837.81;;;13.74;68.83
77631;BME280;66798;47.370;8.552;2023-05-24T17:35:59;96837.88;;;13.69;70.15
77631;BME280;66798;47.370;8.552;2023-05-24T17:38:29;96833.22;;;13.56;71.45
77631;BME280;66798;47.370;8.552;2023-05-24T17:40:57;96842.00;;;13.51;71.99
77631;BME280;66798;47.370;8.552;2023-05-24T17:43:27;96830.97;;;13.44;73.48
77631;BME280;66798;47.370;8.552;2023-05-24T17:46:02;96835.84;;;13.32;73.85
77631;BME280;66798;47.370;8.552;2023-05-24T17:48:38;96838.47;;;13.32;74.65
77631;BME280;66798;47.370;8.552;2023-05-24T17:51:06;96843.75;;;13.32;74.53
77631;BME280;66798;47.370;8.552;2023-05-24T17:53:33;96838.41;;;13.42;75.10
77631;BME280;66798;47.370;8.552;2023-05-24T17:56:01;96837.28;;;13.48;75.10
77631;BME280;66798;47.370;8.552;2023-05-24T17:58:27;96842.56;;;13.48;73.85
77631;BME280;66798;47.370;8.552;2023-05-24T18:01:03;96847.31;;;13.46;74.47
77631;BME280;66798;47.370;8.552;2023-05-24T18:03:32;96852.63;;;13.46;73.28
77631;BME280;66798;47.370;8.552;2023-05-24T18:05:58;96852.63;;;13.46;74.12
77631;BME280;66798;47.370;8.552;2023-05-24T18:08:25;96857.56;;;13.53;73.87
77631;BME280;66798;47.370;8.552;2023-05-24T18:10:51;96860.47;;;13.56;73.00
77631;BME280;66798;47.370;8.552;2023-05-24T18:13:16;96866.03;;;13.55;73.65
77631;BME280;66798;47.370;8.552;2023-05-24T18:15:42;96863.09;;;13.56;73.42
77631;BME280;66798;47.370;8.552;2023-05-24T18:18:08;96866.13;;;13.45;72.24
77631;BME280;66798;47.370;8.552;2023-05-24T18:20:35;96867.22;;;13.38;72.80